sensor_id;sensor_type;location;lat;lon;timestamp;P1;durP1;ratioP1;P2;durP2;ratioP2
23115;SDS011;11727;52.134;5.052;2023-10-19T00:00:31;9.48;;;5.25;;
23115;SDS011;11727;52.134;5.052;2023-10-19T00:03:01;8.35;;;5.38;;
23115;SDS011;11727;52.134;5.052;2023-10-19T00:05:30;8.93;;;5.68;;
23115;SDS011;11727;52.134;5.052;2023-10-19T00:07:57;10.35;;;6.05;;
23115;SDS011;11727;52.134;5.052;2023-10-19T00:10:49;13.90;;;5.30;;
23115;SDS011;11727;52.134;5.052;2023-10-19T00:13:38;11.50;;;5.85;;
23115;SDS011;11727;52.134;5.052;2023-10-19T00:16:05;10.45;;;6.03;;
23115;SDS011;11727;52.134;5.052;2023-10-19T00:18:47;11.52;;;6.22;;
23115;SDS011;11727;52.134;5.052;2023-10-19T00:21:14;11.88;;;6.68;;
23115;SDS011;11727;52.134;5.052;2023-10-19T00:23:51;16.33;;;7.50;;
23115;SDS011;11727;52.134;5.052;2023-10-19T00:26:29;12.68;;;7.05;;
23115;SDS011;11727;52.134;5.052;2023-10-19T00:28:55;14.93;;;7.38;;
23115;SDS011;11727;52.134;5.052;2023-10-19T00:31:22;19.20;;;7.78;;
23115;SDS011;11727;52.134;5.052;2023-10-19T00:33:49;12.25;;;7.13;;
23115;SDS011;11727;52.134;5.052;2023-10-19T00:36:19;13.05;;;7.15;;
23115;SDS011;11727;52.134;5.052;2023-10-19T00:38:46;13.43;;;7.72;;
23115;SDS011;11727;52.134;5.052;2023-10-19T00:41:15;12.30;;;7.07;;
23115;SDS011;11727;52.134;5.052;2023-10-19T00:43:55;12.95;;;7.28;;
23115;SDS011;11727;52.134;5.052;2023-10-19T00:46:37;13.55;;;6.95;;
23115;SDS011;11727;52.134;5.052;2023-10-19T00:49:06;16.52;;;8.13;;
23115;SDS011;11727;52.134;5.052;2023-10-19T00:51:41;11.80;;;7.55;;
23115;SDS011;11727;52.134;5.052;2023-10-19T00:54:17;12.93;;;7.57;;
23115;SDS011;11727;52.134;5.052;2023-10-19T00:57:15;15.05;;;8.73;;
23115;SDS011;11727;52.134;5.052;2023-10-19T00:59:57;12.88;;;7.40;;
23115;SDS011;11727;52.134;5.052;2023-10-19T01:02:36;13.40;;;8.10;;
23115;SDS011;11727;52.134;5.052;2023-10-19T01:05:11;15.07;;;7.40;;
23115;SDS011;11727;52.134;5.052;2023-10-19T01:07:39;17.45;;;8.18;;
23115;SDS011;11727;52.134;5.052;2023-10-19T01:10:06;15.50;;;8.80;;
23115;SDS011;11727;52.134;5.052;2023-10-19T01:12:44;15.60;;;8.45;;
23115;SDS011;11727;52.134;5.052;2023-10-19T01:15:14;13.27;;;8.45;;
23115;SDS011;11727;52.134;5.052;2023-10-19T01:17:58;16.58;;;10.02;;
23115;SDS011;11727;52.134;5.052;2023-10-19T01:20:25;17.98;;;9.38;;
23115;SDS011;11727;52.134;5.052;2023-10-19T01:22:55;16.92;;;9.40;;
23115;SDS011;11727;52.134;5.052;2023-10-19T01:25:47;16.98;;;8.75;;
23115;SDS011;11727;52.134;5.052;2023-10-19T01:28:33;17.23;;;8.98;;
23115;SDS011;11727;52.134;5.052;2023-10-19T01:31:05;15.07;;;8.50;;
23115;SDS011;11727;52.134;5.052;2023-10-19T01:33:32;15.98;;;9.20;;
23115;SDS011;11727;52.134;5.052;2023-10-19T01:35:59;15.38;;;8.75;;
23115;SDS011;11727;52.134;5.052;2023-10-19T01:38:49;12.40;;;8.30;;
23115;SDS011;11727;52.134;5.052;2023-10-19T01:41:18;15.00;;;8.88;;
23115;SDS011;11727;52.134;5.052;2023-10-19T01:43:45;14.57;;;8.35;;
23115;SDS011;11727;52.134;5.052;2023-10-19T01:46:13;13.48;;;8.48;;
23115;SDS011;11727;52.134;5.052;2023-10-19T01:48:51;14.82;;;9.13;;
23115;SDS011;11727;52.134;5.052;2023-10-19T01:51:21;21.35;;;9.25;;
23115;SDS011;11727;52.134;5.052;2023-10-19T01:53:48;13.85;;;8.23;;
23115;SDS011;11727;52.134;5.052;2023-10-19T01:56:15;13.40;;;8.07;;
23115;SDS011;11727;52.134;5.052;2023-10-19T01:58:42;14.27;;;7.80;;
23115;SDS011;11727;52.134;5.052;2023-10-19T02:01:11;16.65;;;8.32;;
23115;SDS011;11727;52.134;5.052;2023-10-19T02:03:41;13.40;;;7.97;;
23115;SDS011;11727;52.134;5.052;2023-10-19T02:06:08;13.77;;;7.47;;
23115;SDS011;11727;52.134;5.052;2023-10-19T02:08:52;14.55;;;8.48;;
23115;SDS011;11727;52.134;5.052;2023-10-19T02:11:22;14.70;;;7.28;;
23115;SDS011;11727;52.134;5.052;2023-10-19T02:13:49;14.30;;;6.88;;
23115;SDS011;11727;52.134;5.052;2023-10-19T02:16:17;16.80;;;8.55;;
23115;SDS011;11727;52.134;5.052;2023-10-19T02:18:54;13.63;;;7.15;;
23115;SDS011;11727;52.134;5.052;2023-10-19T02:21:20;13.20;;;6.93;;
23115;SDS011;11727;52.134;5.052;2023-10-19T02:23:55;12.93;;;6.05;;
23115;SDS011;11727;52.134;5.052;2023-10-19T02:26:22;14.93;;;7.20;;
23115;SDS011;11727;52.134;5.052;2023-10-19T02:28:50;10.57;;;6.38;;
23115;SDS011;11727;52.134;5.052;2023-10-19T02:31:16;11.05;;;6.40;;
23115;SDS011;11727;52.134;5.052;2023-10-19T02:33:50;11.13;;;5.72;;
23115;SDS011;11727;52.134;5.052;2023-10-19T02:36:28;12.82;;;5.80;;
23115;SDS011;11727;52.134;5.052;2023-10-19T02:39:02;11.10;;;5.90;;
23115;SDS011;11727;52.134;5.052;2023-10-19T02:41:36;14.23;;;6.35;;
23115;SDS011;11727;52.134;5.052;2023-10-19T02:44:03;14.15;;;5.90;;
23115;SDS011;11727;52.134;5.052;2023-10-19T02:46:30;14.10;;;6.45;;
23115;SDS011;11727;52.134;5.052;2023-10-19T02:49:06;9.05;;;5.40;;
23115;SDS011;11727;52.134;5.052;2023-10-19T02:51:36;11.38;;;5.90;;
23115;SDS011;11727;52.134;5.052;2023-10-19T02:54:06;12.50;;;5.68;;
23115;SDS011;11727;52.134;5.052;2023-10-19T02:56:33;11.30;;;5.25;;
23115;SDS011;11727;52.134;5.052;2023-10-19T03:01:29;10.45;;;5.28;;
23115;SDS011;11727;52.134;5.052;2023-10-19T03:03:58;11.68;;;5.97;;
23115;SDS011;11727;52.134;5.052;2023-10-19T03:06:27;8.90;;;5.55;;
23115;SDS011;11727;52.134;5.052;2023-10-19T03:09:03;11.40;;;4.75;;
23115;SDS011;11727;52.134;5.052;2023-10-19T03:11:37;8.38;;;5.22;;
23115;SDS011;11727;52.134;5.052;2023-10-19T03:14:06;12.55;;;5.97;;
23115;SDS011;11727;52.134;5.052;2023-10-19T03:16:32;8.95;;;5.53;;
23115;SDS011;11727;52.134;5.052;2023-10-19T03:18:59;10.13;;;5.10;;
23115;SDS011;11727;52.134;5.052;2023-10-19T03:21:25;8.27;;;5.35;;
23115;SDS011;11727;52.134;5.052;2023-10-19T03:23:58;9.93;;;5.50;;
23115;SDS011;11727;52.134;5.052;2023-10-19T03:26:27;10.23;;;4.68;;
23115;SDS011;11727;52.134;5.052;2023-10-19T03:28:55;10.05;;;5.13;;
23115;SDS011;11727;52.134;5.052;2023-10-19T03:31:32;7.30;;;4.30;;
23115;SDS011;11727;52.134;5.052;2023-10-19T03:33:58;8.57;;;4.22;;
23115;SDS011;11727;52.134;5.052;2023-10-19T03:36:24;7.82;;;4.22;;
23115;SDS011;11727;52.134;5.052;2023-10-19T03:38:51;5.95;;;3.42;;
23115;SDS011;11727;52.134;5.052;2023-10-19T03:41:18;8.13;;;3.13;;
23115;SDS011;11727;52.134;5.052;2023-10-19T03:43:53;8.95;;;3.08;;
23115;SDS011;11727;52.134;5.052;2023-10-19T03:46:22;8.05;;;3.28;;
23115;SDS011;11727;52.134;5.052;2023-10-19T03:48:54;6.50;;;3.03;;
23115;SDS011;11727;52.134;5.052;2023-10-19T03:51:24;7.10;;;2.58;;
23115;SDS011;11727;52.134;5.052;2023-10-19T03:54:04;6.70;;;2.88;;
23115;SDS011;11727;52.134;5.052;2023-10-19T03:56:38;6.85;;;2.75;;
23115;SDS011;11727;52.134;5.052;2023-10-19T03:59:03;4.32;;;1.98;;
23115;SDS011;11727;52.134;5.052;2023-10-19T04:01:31;6.72;;;3.03;;
23115;SDS011;11727;52.134;5.052;2023-10-19T04:03:56;3.65;;;1.98;;
23115;SDS011;11727;52.134;5.052;2023-10-19T04:06:22;4.47;;;2.03;;
23115;SDS011;11727;52.134;5.052;2023-10-19T04:08:48;7.05;;;2.17;;
23115;SDS011;11727;52.134;5.052;2023-10-19T04:11:16;4.13;;;1.50;;
23115;SDS011;11727;52.134;5.052;2023-10-19T04:13:49;3.53;;;1.60;;
23115;SDS011;11727;52.134;5.052;2023-10-19T04:16:18;3.83;;;1.58;;
23115;SDS011;11727;52.134;5.052;2023-10-19T04:18:44;2.42;;;1.10;;
23115;SDS011;11727;52.134;5.052;2023-10-19T04:21:10;3.63;;;1.15;;
23115;SDS011;11727;52.134;5.052;2023-10-19T04:23:35;2.03;;;1.20;;
23115;SDS011;11727;52.134;5.052;2023-10-19T04:26:02;4.70;;;1.25;;
23115;SDS011;11727;52.134;5.052;2023-10-19T04:28:35;6.30;;;1.40;;
23115;SDS011;11727;52.134;5.052;2023-10-19T04:31:09;7.63;;;1.33;;
23115;SDS011;11727;52.134;5.052;2023-10-19T04:33:39;3.97;;;0.98;;
23115;SDS011;11727;52.134;5.052;2023-10-19T04:36:07;5.25;;;1.23;;
23115;SDS011;11727;52.134;5.052;2023-10-19T04:38:36;4.40;;;0.85;;
23115;SDS011;11727;52.134;5.052;2023-10-19T04:41:05;4.70;;;1.20;;
23115;SDS011;11727;52.134;5.052;2023-10-19T04:43:32;4.32;;;0.77;;
23115;SDS011;11727;52.134;5.052;2023-10-19T04:46:00;6.72;;;1.02;;
23115;SDS011;11727;52.134;5.052;2023-10-19T04:48:26;3.17;;;0.70;;
23115;SDS011;11727;52.134;5.052;2023-10-19T04:50:51;4.50;;;0.85;;
23115;SDS011;11727;52.134;5.052;2023-10-19T04:53:17;3.60;;;0.60;;
23115;SDS011;11727;52.134;5.052;2023-10-19T04:55:43;3.58;;;0.93;;
23115;SDS011;11727;52.134;5.052;2023-10-19T04:58:11;1.92;;;0.68;;
23115;SDS011;11727;52.134;5.052;2023-10-19T05:00:36;10.93;;;0.80;;
23115;SDS011;11727;52.134;5.052;2023-10-19T05:03:02;4.38;;;1.00;;
23115;SDS011;11727;52.134;5.052;2023-10-19T05:05:28;1.52;;;0.55;;
23115;SDS011;11727;52.134;5.052;2023-10-19T05:07:54;5.95;;;0.60;;
23115;SDS011;11727;52.134;5.052;2023-10-19T05:10:20;4.93;;;1.27;;
23115;SDS011;11727;52.134;5.052;2023-10-19T05:12:45;6.22;;;0.50;;
23115;SDS011;11727;52.134;5.052;2023-10-19T05:15:11;1.17;;;0.40;;
23115;SDS011;11727;52.134;5.052;2023-10-19T05:17:36;5.05;;;0.80;;
23115;SDS011;11727;52.134;5.052;2023-10-19T05:20:03;9.85;;;0.82;;
23115;SDS011;11727;52.134;5.052;2023-10-19T05:22:30;4.65;;;0.77;;
23115;SDS011;11727;52.134;5.052;2023-10-19T05:24:57;1.63;;;0.40;;
23115;SDS011;11727;52.134;5.052;2023-10-19T05:27:23;2.78;;;0.43;;
23115;SDS011;11727;52.134;5.052;2023-10-19T05:29:49;1.65;;;0.60;;
23115;SDS011;11727;52.134;5.052;2023-10-19T05:32:16;1.27;;;0.47;;
23115;SDS011;11727;52.134;5.052;2023-10-19T05:34:42;3.40;;;0.77;;
23115;SDS011;11727;52.134;5.052;2023-10-19T05:37:08;9.27;;;0.60;;
23115;SDS011;11727;52.134;5.052;2023-10-19T05:39:34;3.35;;;0.68;;
23115;SDS011;11727;52.134;5.052;2023-10-19T05:42:01;3.92;;;0.88;;
23115;SDS011;11727;52.134;5.052;2023-10-19T05:44:28;1.58;;;0.50;;
23115;SDS011;11727;52.134;5.052;2023-10-19T05:46:55;2.42;;;0.45;;
23115;SDS011;11727;52.134;5.052;2023-10-19T05:49:21;1.38;;;0.57;;
23115;SDS011;11727;52.134;5.052;2023-10-19T05:51:49;2.90;;;0.50;;
23115;SDS011;11727;52.134;5.052;2023-10-19T05:54:15;4.28;;;0.45;;
23115;SDS011;11727;52.134;5.052;2023-10-19T05:56:42;1.43;;;0.50;;
23115;SDS011;11727;52.134;5.052;2023-10-19T05:59:07;5.53;;;0.73;;
23115;SDS011;11727;52.134;5.052;2023-10-19T06:01:35;3.08;;;0.63;;
23115;SDS011;11727;52.134;5.052;2023-10-19T06:04:02;1.88;;;0.50;;
23115;SDS011;11727;52.134;5.052;2023-10-19T06:06:28;4.75;;;1.27;;
23115;SDS011;11727;52.134;5.052;2023-10-19T06:08:53;5.53;;;0.70;;
23115;SDS011;11727;52.134;5.052;2023-10-19T06:11:20;12.50;;;0.80;;
23115;SDS011;11727;52.134;5.052;2023-10-19T06:13:46;7.40;;;0.70;;
23115;SDS011;11727;52.134;5.052;2023-10-19T06:16:11;2.70;;;0.88;;
23115;SDS011;11727;52.134;5.052;2023-10-19T06:18:37;4.28;;;0.88;;
23115;SDS011;11727;52.134;5.052;2023-10-19T06:21:03;3.78;;;0.80;;
23115;SDS011;11727;52.134;5.052;2023-10-19T06:23:29;6.63;;;0.93;;
23115;SDS011;11727;52.134;5.052;2023-10-19T06:25:56;2.80;;;0.98;;
23115;SDS011;11727;52.134;5.052;2023-10-19T06:28:22;2.97;;;0.98;;
23115;SDS011;11727;52.134;5.052;2023-10-19T06:30:48;8.57;;;0.70;;
23115;SDS011;11727;52.134;5.052;2023-10-19T06:33:13;4.20;;;0.90;;
23115;SDS011;11727;52.134;5.052;2023-10-19T06:35:39;2.25;;;0.65;;
23115;SDS011;11727;52.134;5.052;2023-10-19T06:38:05;7.18;;;0.80;;
23115;SDS011;11727;52.134;5.052;2023-10-19T06:40:33;5.32;;;0.73;;
23115;SDS011;11727;52.134;5.052;2023-10-19T06:43:03;2.53;;;0.70;;
23115;SDS011;11727;52.134;5.052;2023-10-19T06:45:30;6.25;;;0.68;;
23115;SDS011;11727;52.134;5.052;2023-10-19T06:47:56;3.97;;;0.80;;
23115;SDS011;11727;52.134;5.052;2023-10-19T06:50:22;6.60;;;0.82;;
23115;SDS011;11727;52.134;5.052;2023-10-19T06:52:49;3.10;;;0.90;;
23115;SDS011;11727;52.134;5.052;2023-10-19T06:57:47;9.30;;;0.93;;
23115;SDS011;11727;52.134;5.052;2023-10-19T07:00:21;9.48;;;1.30;;
23115;SDS011;11727;52.134;5.052;2023-10-19T07:02:48;2.25;;;0.60;;
23115;SDS011;11727;52.134;5.052;2023-10-19T07:05:15;2.70;;;0.85;;
23115;SDS011;11727;52.134;5.052;2023-10-19T07:07:51;2.50;;;0.73;;
23115;SDS011;11727;52.134;5.052;2023-10-19T07:10:19;6.90;;;1.15;;
23115;SDS011;11727;52.134;5.052;2023-10-19T07:12:46;2.92;;;0.73;;
23115;SDS011;11727;52.134;5.052;2023-10-19T07:15:13;1.58;;;0.57;;
23115;SDS011;11727;52.134;5.052;2023-10-19T07:17:42;2.35;;;0.70;;
23115;SDS011;11727;52.134;5.052;2023-10-19T07:20:09;0.90;;;0.45;;
23115;SDS011;11727;52.134;5.052;2023-10-19T07:22:55;5.13;;;0.77;;
23115;SDS011;11727;52.134;5.052;2023-10-19T07:25:22;0.88;;;0.60;;
23115;SDS011;11727;52.134;5.052;2023-10-19T07:27:50;2.78;;;0.60;;
23115;SDS011;11727;52.134;5.052;2023-10-19T07:30:19;9.55;;;1.10;;
23115;SDS011;11727;52.134;5.052;2023-10-19T07:32:49;3.17;;;0.82;;
23115;SDS011;11727;52.134;5.052;2023-10-19T07:35:18;5.03;;;1.20;;
23115;SDS011;11727;52.134;5.052;2023-10-19T07:37:44;4.15;;;0.85;;
23115;SDS011;11727;52.134;5.052;2023-10-19T07:40:10;4.35;;;0.88;;
23115;SDS011;11727;52.134;5.052;2023-10-19T07:42:39;3.22;;;0.65;;
23115;SDS011;11727;52.134;5.052;2023-10-19T07:45:05;2.55;;;0.70;;
23115;SDS011;11727;52.134;5.052;2023-10-19T07:47:36;1.77;;;0.70;;
23115;SDS011;11727;52.134;5.052;2023-10-19T07:50:05;6.22;;;0.73;;
23115;SDS011;11727;52.134;5.052;2023-10-19T07:52:41;8.70;;;1.10;;
23115;SDS011;11727;52.134;5.052;2023-10-19T07:57:34;3.50;;;0.75;;
23115;SDS011;11727;52.134;5.052;2023-10-19T08:00:00;0.95;;;0.47;;
23115;SDS011;11727;52.134;5.052;2023-10-19T08:02:25;5.45;;;1.00;;
23115;SDS011;11727;52.134;5.052;2023-10-19T08:04:51;3.45;;;1.13;;
23115;SDS011;11727;52.134;5.052;2023-10-19T08:07:17;4.88;;;0.80;;
23115;SDS011;11727;52.134;5.052;2023-10-19T08:09:44;5.85;;;0.98;;
23115;SDS011;11727;52.134;5.052;2023-10-19T08:12:10;2.42;;;0.70;;
23115;SDS011;11727;52.134;5.052;2023-10-19T08:14:38;4.78;;;0.98;;
23115;SDS011;11727;52.134;5.052;2023-10-19T08:17:04;5.03;;;1.00;;
23115;SDS011;11727;52.134;5.052;2023-10-19T08:19:31;4.50;;;0.88;;
23115;SDS011;11727;52.134;5.052;2023-10-19T08:21:56;5.20;;;0.90;;
23115;SDS011;11727;52.134;5.052;2023-10-19T08:24:22;4.78;;;0.73;;
23115;SDS011;11727;52.134;5.052;2023-10-19T08:26:48;6.88;;;0.93;;
23115;SDS011;11727;52.134;5.052;2023-10-19T08:29:15;5.43;;;0.98;;
23115;SDS011;11727;52.134;5.052;2023-10-19T08:31:43;4.00;;;1.00;;
23115;SDS011;11727;52.134;5.052;2023-10-19T08:34:11;2.70;;;0.90;;
23115;SDS011;11727;52.134;5.052;2023-10-19T08:36:38;1.67;;;0.60;;
23115;SDS011;11727;52.134;5.052;2023-10-19T08:39:07;2.75;;;0.80;;
23115;SDS011;11727;52.134;5.052;2023-10-19T08:41:34;5.18;;;0.95;;
23115;SDS011;11727;52.134;5.052;2023-10-19T08:44:05;3.13;;;0.98;;
23115;SDS011;11727;52.134;5.052;2023-10-19T08:46:40;2.35;;;0.73;;
23115;SDS011;11727;52.134;5.052;2023-10-19T08:49:19;4.20;;;0.80;;
23115;SDS011;11727;52.134;5.052;2023-10-19T08:51:45;6.10;;;1.13;;
23115;SDS011;11727;52.134;5.052;2023-10-19T08:54:12;3.35;;;0.88;;
23115;SDS011;11727;52.134;5.052;2023-10-19T08:56:38;4.47;;;1.23;;
23115;SDS011;11727;52.134;5.052;2023-10-19T08:59:08;2.38;;;0.80;;
23115;SDS011;11727;52.134;5.052;2023-10-19T09:01:37;3.33;;;1.15;;
23115;SDS011;11727;52.134;5.052;2023-10-19T09:04:03;6.25;;;1.00;;
23115;SDS011;11727;52.134;5.052;2023-10-19T09:06:35;11.90;;;1.30;;
23115;SDS011;11727;52.134;5.052;2023-10-19T09:09:10;6.90;;;1.88;;
23115;SDS011;11727;52.134;5.052;2023-10-19T09:11:44;6.13;;;1.55;;
23115;SDS011;11727;52.134;5.052;2023-10-19T09:14:11;3.40;;;1.45;;
23115;SDS011;11727;52.134;5.052;2023-10-19T09:16:38;2.92;;;0.82;;
23115;SDS011;11727;52.134;5.052;2023-10-19T09:19:19;5.07;;;1.48;;
23115;SDS011;11727;52.134;5.052;2023-10-19T09:21:45;12.63;;;1.80;;
23115;SDS011;11727;52.134;5.052;2023-10-19T09:24:11;5.28;;;1.55;;
23115;SDS011;11727;52.134;5.052;2023-10-19T09:26:37;8.80;;;1.10;;
23115;SDS011;11727;52.134;5.052;2023-10-19T09:29:02;3.95;;;1.20;;
23115;SDS011;11727;52.134;5.052;2023-10-19T09:31:28;3.22;;;0.95;;
23115;SDS011;11727;52.134;5.052;2023-10-19T09:33:55;6.80;;;1.38;;
23115;SDS011;11727;52.134;5.052;2023-10-19T09:36:22;4.97;;;1.20;;
23115;SDS011;11727;52.134;5.052;2023-10-19T09:38:51;5.93;;;2.03;;
23115;SDS011;11727;52.134;5.052;2023-10-19T09:41:17;13.90;;;1.20;;
23115;SDS011;11727;52.134;5.052;2023-10-19T09:43:45;6.40;;;1.20;;
23115;SDS011;11727;52.134;5.052;2023-10-19T09:48:46;3.63;;;1.05;;
23115;SDS011;11727;52.134;5.052;2023-10-19T09:51:13;4.95;;;1.55;;
23115;SDS011;11727;52.134;5.052;2023-10-19T09:53:41;5.07;;;1.60;;
23115;SDS011;11727;52.134;5.052;2023-10-19T09:56:18;6.03;;;1.27;;
23115;SDS011;11727;52.134;5.052;2023-10-19T09:58:48;6.63;;;1.38;;
23115;SDS011;11727;52.134;5.052;2023-10-19T10:01:18;5.75;;;1.60;;
23115;SDS011;11727;52.134;5.052;2023-10-19T10:03:47;8.48;;;1.02;;
23115;SDS011;11727;52.134;5.052;2023-10-19T10:06:16;2.08;;;0.70;;
23115;SDS011;11727;52.134;5.052;2023-10-19T10:08:51;9.95;;;1.75;;
23115;SDS011;11727;52.134;5.052;2023-10-19T10:11:19;7.30;;;1.35;;
23115;SDS011;11727;52.134;5.052;2023-10-19T10:13:45;5.90;;;1.48;;
23115;SDS011;11727;52.134;5.052;2023-10-19T10:16:15;5.45;;;1.27;;
23115;SDS011;11727;52.134;5.052;2023-10-19T10:18:42;6.07;;;1.10;;
23115;SDS011;11727;52.134;5.052;2023-10-19T10:21:11;8.23;;;1.55;;
23115;SDS011;11727;52.134;5.052;2023-10-19T10:24:00;6.07;;;0.95;;
23115;SDS011;11727;52.134;5.052;2023-10-19T10:26:29;7.95;;;1.30;;
23115;SDS011;11727;52.134;5.052;2023-10-19T10:29:13;4.60;;;1.30;;
23115;SDS011;11727;52.134;5.052;2023-10-19T10:31:45;7.88;;;1.40;;
23115;SDS011;11727;52.134;5.052;2023-10-19T10:34:45;4.43;;;0.82;;
23115;SDS011;11727;52.134;5.052;2023-10-19T10:37:07;8.02;;;1.63;;
23115;SDS011;11727;52.134;5.052;2023-10-19T10:39:35;5.15;;;1.10;;
23115;SDS011;11727;52.134;5.052;2023-10-19T10:42:03;5.72;;;1.48;;
23115;SDS011;11727;52.134;5.052;2023-10-19T10:44:37;3.22;;;0.90;;
23115;SDS011;11727;52.134;5.052;2023-10-19T10:47:05;4.88;;;1.10;;
23115;SDS011;11727;52.134;5.052;2023-10-19T10:52:23;7.90;;;1.40;;
23115;SDS011;11727;52.134;5.052;2023-10-19T10:54:49;9.52;;;1.10;;
23115;SDS011;11727;52.134;5.052;2023-10-19T10:57:14;5.45;;;1.50;;
23115;SDS011;11727;52.134;5.052;2023-10-19T10:59:41;10.60;;;1.63;;
23115;SDS011;11727;52.134;5.052;2023-10-19T11:02:19;7.18;;;1.40;;
23115;SDS011;11727;52.134;5.052;2023-10-19T11:04:46;5.93;;;1.52;;
23115;SDS011;11727;52.134;5.052;2023-10-19T11:07:18;7.55;;;1.73;;
23115;SDS011;11727;52.134;5.052;2023-10-19T11:09:49;4.30;;;1.65;;
23115;SDS011;11727;52.134;5.052;2023-10-19T11:12:14;6.22;;;1.42;;
23115;SDS011;11727;52.134;5.052;2023-10-19T11:17:18;6.68;;;1.23;;
23115;SDS011;11727;52.134;5.052;2023-10-19T11:19:44;4.10;;;1.23;;
23115;SDS011;11727;52.134;5.052;2023-10-19T11:22:10;8.90;;;1.75;;
23115;SDS011;11727;52.134;5.052;2023-10-19T11:24:36;5.18;;;1.00;;
23115;SDS011;11727;52.134;5.052;2023-10-19T11:27:05;11.30;;;1.60;;
23115;SDS011;11727;52.134;5.052;2023-10-19T11:32:01;8.65;;;1.23;;
23115;SDS011;11727;52.134;5.052;2023-10-19T11:34:27;7.15;;;1.15;;
23115;SDS011;11727;52.134;5.052;2023-10-19T11:36:57;4.10;;;1.05;;
23115;SDS011;11727;52.134;5.052;2023-10-19T11:39:25;2.95;;;1.10;;
23115;SDS011;11727;52.134;5.052;2023-10-19T11:41:51;9.02;;;1.15;;
23115;SDS011;11727;52.134;5.052;2023-10-19T11:44:18;5.20;;;1.23;;
23115;SDS011;11727;52.134;5.052;2023-10-19T11:46:44;4.00;;;0.70;;
23115;SDS011;11727;52.134;5.052;2023-10-19T11:49:10;3.90;;;1.00;;
23115;SDS011;11727;52.134;5.052;2023-10-19T11:51:36;3.50;;;0.85;;
23115;SDS011;11727;52.134;5.052;2023-10-19T11:54:04;10.82;;;1.20;;
23115;SDS011;11727;52.134;5.052;2023-10-19T11:56:31;4.75;;;1.10;;
23115;SDS011;11727;52.134;5.052;2023-10-19T11:58:57;5.10;;;1.08;;
23115;SDS011;11727;52.134;5.052;2023-10-19T12:01:22;5.85;;;1.00;;
23115;SDS011;11727;52.134;5.052;2023-10-19T12:03:50;7.30;;;1.30;;
23115;SDS011;11727;52.134;5.052;2023-10-19T12:06:16;10.20;;;1.33;;
23115;SDS011;11727;52.134;5.052;2023-10-19T12:08:44;8.73;;;1.58;;
23115;SDS011;11727;52.134;5.052;2023-10-19T12:11:10;8.45;;;1.08;;
23115;SDS011;11727;52.134;5.052;2023-10-19T12:13:43;6.18;;;1.15;;
23115;SDS011;11727;52.134;5.052;2023-10-19T12:16:12;7.75;;;1.02;;
23115;SDS011;11727;52.134;5.052;2023-10-19T12:18:38;5.63;;;0.93;;
23115;SDS011;11727;52.134;5.052;2023-10-19T12:21:07;8.48;;;1.23;;
23115;SDS011;11727;52.134;5.052;2023-10-19T12:23:36;3.53;;;0.88;;
23115;SDS011;11727;52.134;5.052;2023-10-19T12:26:09;8.38;;;1.20;;
23115;SDS011;11727;52.134;5.052;2023-10-19T12:28:40;10.38;;;1.35;;
23115;SDS011;11727;52.134;5.052;2023-10-19T12:31:07;9.88;;;1.10;;
23115;SDS011;11727;52.134;5.052;2023-10-19T12:33:34;3.70;;;1.00;;
23115;SDS011;11727;52.134;5.052;2023-10-19T12:36:01;6.00;;;1.13;;
23115;SDS011;11727;52.134;5.052;2023-10-19T12:38:43;13.32;;;1.48;;
23115;SDS011;11727;52.134;5.052;2023-10-19T12:41:09;7.45;;;0.80;;
23115;SDS011;11727;52.134;5.052;2023-10-19T12:43:34;8.80;;;1.30;;
23115;SDS011;11727;52.134;5.052;2023-10-19T12:46:00;4.95;;;0.88;;
23115;SDS011;11727;52.134;5.052;2023-10-19T12:48:26;7.38;;;0.90;;
23115;SDS011;11727;52.134;5.052;2023-10-19T12:50:58;10.52;;;1.17;;
23115;SDS011;11727;52.134;5.052;2023-10-19T12:53:24;8.43;;;1.40;;
23115;SDS011;11727;52.134;5.052;2023-10-19T12:55:50;3.88;;;0.80;;
23115;SDS011;11727;52.134;5.052;2023-10-19T12:58:17;8.80;;;1.52;;
23115;SDS011;11727;52.134;5.052;2023-10-19T13:00:45;9.60;;;1.38;;
23115;SDS011;11727;52.134;5.052;2023-10-19T13:03:13;3.97;;;0.98;;
23115;SDS011;11727;52.134;5.052;2023-10-19T13:05:39;7.27;;;1.50;;
23115;SDS011;11727;52.134;5.052;2023-10-19T13:08:09;4.90;;;0.80;;
23115;SDS011;11727;52.134;5.052;2023-10-19T13:10:38;11.30;;;1.42;;
23115;SDS011;11727;52.134;5.052;2023-10-19T13:13:07;5.35;;;1.17;;
23115;SDS011;11727;52.134;5.052;2023-10-19T13:15:37;4.28;;;0.88;;
23115;SDS011;11727;52.134;5.052;2023-10-19T13:18:04;6.70;;;0.93;;
23115;SDS011;11727;52.134;5.052;2023-10-19T13:20:35;7.35;;;1.20;;
23115;SDS011;11727;52.134;5.052;2023-10-19T13:23:09;7.72;;;1.38;;
23115;SDS011;11727;52.134;5.052;2023-10-19T13:25:56;5.88;;;0.90;;
23115;SDS011;11727;52.134;5.052;2023-10-19T13:28:44;6.55;;;0.90;;
23115;SDS011;11727;52.134;5.052;2023-10-19T13:31:10;11.10;;;1.05;;
23115;SDS011;11727;52.134;5.052;2023-10-19T13:33:41;4.75;;;1.02;;
23115;SDS011;11727;52.134;5.052;2023-10-19T13:36:09;4.43;;;1.38;;
23115;SDS011;11727;52.134;5.052;2023-10-19T13:38:54;15.65;;;1.42;;
23115;SDS011;11727;52.134;5.052;2023-10-19T13:41:20;5.85;;;1.13;;
23115;SDS011;11727;52.134;5.052;2023-10-19T13:43:48;9.05;;;0.82;;
23115;SDS011;11727;52.134;5.052;2023-10-19T13:46:14;6.32;;;1.27;;
23115;SDS011;11727;52.134;5.052;2023-10-19T13:48:40;10.30;;;1.63;;
23115;SDS011;11727;52.134;5.052;2023-10-19T13:51:08;8.45;;;1.33;;
23115;SDS011;11727;52.134;5.052;2023-10-19T13:53:51;7.22;;;1.30;;
23115;SDS011;11727;52.134;5.052;2023-10-19T13:56:16;7.88;;;1.60;;
23115;SDS011;11727;52.134;5.052;2023-10-19T13:58:42;12.88;;;1.50;;
23115;SDS011;11727;52.134;5.052;2023-10-19T14:01:15;4.03;;;1.48;;
23115;SDS011;11727;52.134;5.052;2023-10-19T14:03:44;10.82;;;1.88;;
23115;SDS011;11727;52.134;5.052;2023-10-19T14:06:15;7.90;;;2.25;;
23115;SDS011;11727;52.134;5.052;2023-10-19T14:08:41;3.65;;;1.45;;
23115;SDS011;11727;52.134;5.052;2023-10-19T14:11:21;13.57;;;2.22;;
23115;SDS011;11727;52.134;5.052;2023-10-19T14:13:48;7.05;;;1.85;;
23115;SDS011;11727;52.134;5.052;2023-10-19T14:16:19;7.57;;;1.90;;
23115;SDS011;11727;52.134;5.052;2023-10-19T14:18:45;13.35;;;1.98;;
23115;SDS011;11727;52.134;5.052;2023-10-19T14:21:17;9.85;;;2.40;;
23115;SDS011;11727;52.134;5.052;2023-10-19T14:23:45;9.40;;;1.50;;
23115;SDS011;11727;52.134;5.052;2023-10-19T14:26:12;11.60;;;1.80;;
23115;SDS011;11727;52.134;5.052;2023-10-19T14:28:38;4.28;;;1.60;;
23115;SDS011;11727;52.134;5.052;2023-10-19T14:31:21;7.95;;;2.08;;
23115;SDS011;11727;52.134;5.052;2023-10-19T14:33:47;7.22;;;1.95;;
23115;SDS011;11727;52.134;5.052;2023-10-19T14:36:12;10.27;;;1.83;;
23115;SDS011;11727;52.134;5.052;2023-10-19T14:38:38;5.28;;;1.38;;
23115;SDS011;11727;52.134;5.052;2023-10-19T14:41:04;10.23;;;2.00;;
23115;SDS011;11727;52.134;5.052;2023-10-19T14:43:34;5.68;;;1.88;;
23115;SDS011;11727;52.134;5.052;2023-10-19T14:45:59;11.52;;;1.45;;
23115;SDS011;11727;52.134;5.052;2023-10-19T14:48:34;11.38;;;2.40;;
23115;SDS011;11727;52.134;5.052;2023-10-19T14:51:01;9.02;;;1.67;;
23115;SDS011;11727;52.134;5.052;2023-10-19T14:53:27;8.63;;;2.00;;
23115;SDS011;11727;52.134;5.052;2023-10-19T14:55:55;8.90;;;2.00;;
23115;SDS011;11727;52.134;5.052;2023-10-19T14:58:27;6.75;;;1.67;;
23115;SDS011;11727;52.134;5.052;2023-10-19T15:00:56;9.02;;;1.70;;
23115;SDS011;11727;52.134;5.052;2023-10-19T15:03:22;11.13;;;1.45;;
23115;SDS011;11727;52.134;5.052;2023-10-19T15:05:52;9.10;;;1.65;;
23115;SDS011;11727;52.134;5.052;2023-10-19T15:08:18;13.38;;;2.05;;
23115;SDS011;11727;52.134;5.052;2023-10-19T15:10:44;9.13;;;1.67;;
23115;SDS011;11727;52.134;5.052;2023-10-19T15:13:10;9.57;;;1.92;;